Time;durP1;ratioP1;P1;durP2;ratioP2;P2;SDS_P1;SDS_P2;PMS_P1;PMS_P2;Temp;Humidity;BMP_temperature;BMP_pressure;BME280_temperature;BME280_humidity;BME280_pressure;Samples;Min_cycle;Max_cycle;Signal;HPM_P1;HPM_P2
2023/03/30 00:00:52;;;;;;;2.53;1.80;;;13.20;99.90;;;;;;5046379;28;20412;-78
2023/03/30 00:03:18;;;;;;;3.83;1.97;;;13.20;99.90;;;;;;5046234;28;20416;-78
2023/03/30 00:05:45;;;;;;;5.20;1.97;;;13.20;99.90;;;;;;5047582;28;20443;-79
2023/03/30 00:08:13;;;;;;;2.67;2.00;;;13.10;99.90;;;;;;5046156;28;20178;-78
2023/03/30 00:10:39;;;;;;;5.00;2.10;;;13.20;99.90;;;;;;5047408;28;20978;-78
2023/03/30 00:13:06;;;;;;;4.70;2.87;;;13.20;99.90;;;;;;5047506;28;21123;-77
2023/03/30 00:15:33;;;;;;;3.93;1.97;;;13.20;99.90;;;;;;5047951;28;20435;-78
2023/03/30 00:18:00;;;;;;;3.17;2.00;;;13.20;99.90;;;;;;5048302;28;20920;-78
2023/03/30 00:20:26;;;;;;;4.50;2.37;;;13.20;99.90;;;;;;5048437;28;20448;-78
2023/03/30 00:22:52;;;;;;;3.43;2.20;;;13.20;99.90;;;;;;5048592;28;20462;-79
2023/03/30 00:25:18;;;;;;;4.30;2.63;;;13.20;99.90;;;;;;5047249;28;20197;-78
2023/03/30 00:27:44;;;;;;;4.00;2.07;;;13.20;99.90;;;;;;5051076;28;20247;-77
2023/03/30 00:30:14;;;;;;;3.40;2.10;;;13.30;99.90;;;;;;5050699;28;20953;-78
2023/03/30 00:32:43;;;;;;;2.17;1.80;;;13.30;99.90;;;;;;5052899;28;20415;-78
2023/03/30 00:35:11;;;;;;;4.60;2.20;;;13.20;99.90;;;;;;5051224;28;20798;-78
2023/03/30 00:37:37;;;;;;;4.73;2.30;;;13.30;99.90;;;;;;5052604;28;20455;-78
2023/03/30 00:40:13;;;;;;;3.77;2.00;;;13.30;99.90;;;;;;5050645;28;20451;-78
2023/03/30 00:42:38;;;;;;;3.73;2.10;;;13.30;99.90;;;;;;5068218;28;20454;-78
2023/03/30 00:45:21;;;;;;;3.63;1.70;;;13.30;99.90;;;;;;5051165;28;20472;-78
2023/03/30 00:47:49;;;;;;;2.07;1.77;;;13.30;99.90;;;;;;5052329;28;20631;-78
2023/03/30 00:50:20;;;;;;;3.13;1.67;;;13.30;99.90;;;;;;5050953;28;20470;-78
2023/03/30 00:52:51;;;;;;;4.57;1.80;;;13.30;99.90;;;;;;5052102;28;20955;-78
2023/03/30 00:55:19;;;;;;;7.23;2.10;;;13.30;99.90;;;;;;5034635;28;20781;-78
2023/03/30 00:57:46;;;;;;;1.97;1.40;;;13.30;99.90;;;;;;5050450;28;20785;-78
2023/03/30 01:00:13;;;;;;;2.30;1.50;;;13.30;99.90;;;;;;5051991;28;20408;-78
2023/03/30 01:02:48;;;;;;;4.00;2.17;;;13.30;99.90;;;;;;5052370;28;20431;-78
2023/03/30 01:05:14;;;;;;;5.77;1.80;;;13.30;99.90;;;;;;5052037;28;20958;-79
2023/03/30 01:07:42;;;;;;;2.50;1.80;;;13.30;99.90;;;;;;5051897;28;20774;-78
2023/03/30 01:10:09;;;;;;;5.40;1.87;;;13.30;99.90;;;;;;5051849;28;20913;-79
2023/03/30 01:12:36;;;;;;;4.77;2.30;;;13.30;99.90;;;;;;5050663;28;20854;-78
2023/03/30 01:15:02;;;;;;;4.17;2.27;;;13.30;99.90;;;;;;5051378;28;20435;-79
2023/03/30 01:17:35;;;;;;;5.57;1.70;;;13.30;99.90;;;;;;5051670;28;20419;-78
2023/03/30 01:20:39;;;;;;;6.20;2.40;;;13.30;99.90;;;;;;5067349;28;20272;-78
2023/03/30 01:23:36;;;;;;;4.10;1.93;;;13.40;99.90;;;;;;5051756;28;20414;-78
2023/03/30 01:26:23;;;;;;;6.57;1.90;;;13.40;99.90;;;;;;5067612;28;20964;-77
2023/03/30 01:29:01;;;;;;;3.50;1.87;;;13.40;99.90;;;;;;5051680;28;20503;-79
2023/03/30 01:32:05;;;;;;;6.73;2.40;;;13.40;99.90;;;;;;5049892;28;20452;-78
2023/03/30 01:34:42;;;;;;;3.20;2.30;;;13.50;99.90;;;;;;5009417;28;20496;-78
2023/03/30 01:37:14;;;;;;;2.40;1.70;;;13.60;99.90;;;;;;5041941;28;20499;-78
2023/03/30 01:40:12;;;;;;;3.13;1.63;;;13.60;99.90;;;;;;5057834;28;20419;-78
2023/03/30 01:42:46;;;;;;;5.70;2.30;;;13.60;99.90;;;;;;5071859;28;20403;-78
2023/03/30 01:45:27;;;;;;;3.83;2.50;;;13.70;99.90;;;;;;5070752;28;20476;-78
2023/03/30 01:48:02;;;;;;;5.00;2.27;;;13.70;99.90;;;;;;5070471;28;20411;-78
2023/03/30 01:50:36;;;;;;;3.90;1.90;;;13.80;99.90;;;;;;5071552;28;20442;-78
2023/03/30 01:53:15;;;;;;;7.13;1.93;;;13.80;99.90;;;;;;5069625;28;20422;-77
2023/03/30 01:55:58;;;;;;;5.77;2.13;;;13.80;99.90;;;;;;5071130;28;20435;-78
2023/03/30 01:58:35;;;;;;;3.57;1.70;;;13.80;99.90;;;;;;5069560;28;20404;-78
2023/03/30 02:01:04;;;;;;;3.70;2.13;;;13.80;99.90;;;;;;5071344;28;20407;-78
2023/03/30 02:03:32;;;;;;;4.13;2.27;;;13.80;99.90;;;;;;5070889;28;20422;-79
2023/03/30 02:06:29;;;;;;;4.57;2.13;;;13.80;99.90;;;;;;5071553;28;20480;-78
2023/03/30 02:08:59;;;;;;;4.23;2.10;;;13.80;99.90;;;;;;5068852;28;20419;-78
2023/03/30 02:11:28;;;;;;;5.20;2.20;;;13.80;99.90;;;;;;5069728;28;20474;-78
2023/03/30 02:13:57;;;;;;;2.57;1.90;;;13.90;99.90;;;;;;5070601;28;20435;-78
2023/03/30 02:16:46;;;;;;;3.23;2.00;;;13.80;99.90;;;;;;5070260;28;20476;-79
2023/03/30 02:19:12;;;;;;;5.43;1.60;;;13.90;99.90;;;;;;5070406;28;20570;-78
2023/03/30 02:21:38;;;;;;;5.47;2.20;;;13.90;99.90;;;;;;5071460;28;20418;-78
2023/03/30 02:24:08;;;;;;;4.90;2.03;;;13.90;99.90;;;;;;5069339;28;20976;-78
2023/03/30 02:26:35;;;;;;;3.80;1.87;;;13.90;99.90;;;;;;5071174;28;20407;-78
2023/03/30 02:29:01;;;;;;;6.23;1.97;;;13.90;99.90;;;;;;5069306;28;20438;-78
2023/03/30 02:31:27;;;;;;;4.37;1.80;;;13.90;99.90;;;;;;5070554;28;20443;-78
2023/03/30 02:34:18;;;;;;;6.47;2.13;;;14.00;99.90;;;;;;5070341;28;20947;-78
2023/03/30 02:37:21;;;;;;;4.37;1.90;;;13.90;99.90;;;;;;5071063;28;20247;-78
2023/03/30 02:40:23;;;;;;;4.60;2.40;;;14.00;99.90;;;;;;5069231;28;20407;-78
2023/03/30 02:43:08;;;;;;;6.20;2.00;;;14.00;99.90;;;;;;5070347;28;20433;-78
2023/03/30 02:45:48;;;;;;;3.33;2.03;;;14.00;99.90;;;;;;5069509;28;20431;-78
2023/03/30 02:48:13;;;;;;;7.97;2.00;;;14.00;99.90;;;;;;5069043;28;20407;-78
2023/03/30 02:51:02;;;;;;;7.57;2.33;;;14.00;99.90;;;;;;5069504;28;20465;-78
2023/03/30 02:53:42;;;;;;;1.90;1.73;;;14.00;99.90;;;;;;5070006;28;20543;-78
2023/03/30 02:56:22;;;;;;;7.20;2.40;;;14.10;99.90;;;;;;5070431;28;20870;-78
2023/03/30 02:58:54;;;;;;;5.33;1.90;;;14.10;99.90;;;;;;5068838;28;20475;-78
2023/03/30 03:01:56;;;;;;;8.33;2.23;;;14.00;99.90;;;;;;5070094;28;20403;-78
2023/03/30 03:04:24;;;;;;;6.53;1.83;;;14.10;99.90;;;;;;5030784;28;20590;-79
2023/03/30 03:06:51;;;;;;;2.63;2.03;;;14.10;99.90;;;;;;5065797;28;20790;-79
2023/03/30 03:09:19;;;;;;;3.30;1.97;;;14.00;99.90;;;;;;5070171;28;20419;-78
2023/03/30 03:11:45;;;;;;;4.73;2.20;;;14.10;99.90;;;;;;5069923;28;20459;-78
2023/03/30 03:14:11;;;;;;;3.83;1.90;;;14.10;99.90;;;;;;5068593;28;20423;-78
2023/03/30 03:16:37;;;;;;;4.47;2.30;;;14.10;99.90;;;;;;5068767;28;20488;-78
2023/03/30 03:19:03;;;;;;;5.00;2.10;;;14.00;99.90;;;;;;5069885;28;20229;-79
2023/03/30 03:21:29;;;;;;;5.60;2.10;;;14.00;99.90;;;;;;5069379;28;20465;-78
2023/03/30 03:23:55;;;;;;;5.37;1.97;;;14.00;99.90;;;;;;5069659;28;20796;-78
2023/03/30 03:26:22;;;;;;;4.00;1.90;;;14.10;99.90;;;;;;5068863;28;20231;-78
2023/03/30 03:28:48;;;;;;;5.37;2.00;;;14.10;99.90;;;;;;5070073;28;20492;-78
2023/03/30 03:31:14;;;;;;;5.33;1.80;;;14.10;99.90;;;;;;5069925;28;20451;-78
2023/03/30 03:33:39;;;;;;;7.00;1.70;;;14.10;99.90;;;;;;5069826;28;20565;-79
2023/03/30 03:36:06;;;;;;;6.60;2.10;;;14.10;99.90;;;;;;5068825;28;20195;-79
2023/03/30 03:38:32;;;;;;;4.50;2.20;;;14.10;99.90;;;;;;5069762;28;20165;-78
2023/03/30 03:40:58;;;;;;;6.70;2.67;;;14.10;99.90;;;;;;5069640;28;20510;-79
2023/03/30 03:43:24;;;;;;;5.43;1.80;;;14.20;99.90;;;;;;5068444;28;20422;-78
2023/03/30 03:45:51;;;;;;;7.73;2.23;;;14.20;99.90;;;;;;5069828;28;20407;-78
2023/03/30 03:48:19;;;;;;;4.67;1.80;;;14.20;99.90;;;;;;5069481;28;20449;-78
2023/03/30 03:50:48;;;;;;;4.97;2.10;;;14.20;99.90;;;;;;5068060;28;20459;-78
2023/03/30 03:53:13;;;;;;;4.20;1.80;;;14.20;99.90;;;;;;5069474;28;21120;-79
2023/03/30 03:55:40;;;;;;;4.60;2.07;;;14.20;99.90;;;;;;5069538;28;20431;-79
2023/03/30 03:58:06;;;;;;;3.60;2.07;;;14.20;99.90;;;;;;5067964;28;20173;-79
2023/03/30 04:00:33;;;;;;;6.93;2.10;;;14.10;99.90;;;;;;5069113;28;20503;-79
2023/03/30 04:02:59;;;;;;;5.30;2.00;;;14.20;99.90;;;;;;5068203;28;20408;-78
2023/03/30 04:05:25;;;;;;;4.50;1.90;;;14.10;99.90;;;;;;5068221;28;20431;-78
2023/03/30 04:07:52;;;;;;;5.10;2.33;;;14.10;99.90;;;;;;5069220;28;20407;-78
2023/03/30 04:10:19;;;;;;;4.60;2.63;;;14.20;99.90;;;;;;5067923;28;20443;-78
2023/03/30 04:12:45;;;;;;;3.93;2.30;;;14.20;99.90;;;;;;5068192;28;20426;-78
2023/03/30 04:15:11;;;;;;;3.50;2.23;;;14.10;99.90;;;;;;5067814;28;20423;-78
2023/03/30 04:17:37;;;;;;;3.83;2.20;;;14.10;99.90;;;;;;5067921;28;20416;-78
2023/03/30 04:20:10;;;;;;;2.83;2.00;;;14.10;99.90;;;;;;5051243;28;20446;-78
2023/03/30 04:22:42;;;;;;;4.93;2.30;;;14.20;99.90;;;;;;5068171;28;20267;-78
2023/03/30 04:25:10;;;;;;;3.77;1.93;;;14.10;99.90;;;;;;5067777;28;20431;-78
2023/03/30 04:27:36;;;;;;;3.73;2.40;;;14.10;99.90;;;;;;5068894;28;20552;-78
2023/03/30 04:30:04;;;;;;;2.80;2.10;;;14.10;99.90;;;;;;5051297;28;20971;-78
2023/03/30 04:32:33;;;;;;;4.20;2.23;;;14.20;99.90;;;;;;5069259;28;20416;-79
2023/03/30 04:35:00;;;;;;;4.20;1.47;;;14.10;99.90;;;;;;5068027;28;20492;-78
2023/03/30 04:37:29;;;;;;;5.50;2.13;;;14.20;99.90;;;;;;5067774;28;20415;-79
2023/03/30 04:39:58;;;;;;;4.67;2.33;;;14.20;99.90;;;;;;5068031;28;20408;-78
2023/03/30 04:42:29;;;;;;;5.40;2.00;;;14.20;99.90;;;;;;5069136;28;20411;-78
2023/03/30 04:44:56;;;;;;;3.20;2.50;;;14.10;99.90;;;;;;5068889;28;20459;-78
2023/03/30 04:47:23;;;;;;;4.70;2.40;;;14.10;99.90;;;;;;5065046;28;20490;-76
2023/03/30 04:49:49;;;;;;;5.67;1.83;;;14.10;99.90;;;;;;5047782;28;20478;-76
2023/03/30 04:52:14;;;;;;;7.63;2.40;;;14.10;99.90;;;;;;5048266;28;20412;-77
2023/03/30 04:54:40;;;;;;;3.70;1.97;;;14.10;99.90;;;;;;5048001;28;20251;-77
2023/03/30 04:57:06;;;;;;;4.33;1.73;;;14.10;99.90;;;;;;5047983;28;20587;-77
2023/03/30 04:59:32;;;;;;;2.50;2.07;;;14.10;99.90;;;;;;5030546;28;20262;-76
2023/03/30 05:01:57;;;;;;;4.40;2.20;;;14.10;99.90;;;;;;5047323;28;20237;-78
2023/03/30 05:04:23;;;;;;;4.93;2.13;;;14.10;99.90;;;;;;5047349;28;20201;-78
2023/03/30 05:06:49;;;;;;;5.97;2.50;;;14.10;99.90;;;;;;5048343;28;20299;-78
2023/03/30 05:09:15;;;;;;;4.50;2.00;;;14.10;99.90;;;;;;5049005;28;20273;-78
2023/03/30 05:11:41;;;;;;;5.60;1.97;;;14.10;99.90;;;;;;5047336;28;20212;-78
2023/03/30 05:14:07;;;;;;;3.43;1.73;;;14.10;99.90;;;;;;5051035;28;20439;-78
2023/03/30 05:16:32;;;;;;;3.10;2.03;;;14.10;99.90;;;;;;5052022;28;20717;-78
2023/03/30 05:18:58;;;;;;;4.17;1.87;;;14.10;99.90;;;;;;5052614;28;20225;-77
2023/03/30 05:21:24;;;;;;;4.50;1.97;;;14.10;99.90;;;;;;5052810;28;20178;-78
2023/03/30 05:23:49;;;;;;;5.97;2.10;;;14.20;99.90;;;;;;5052556;28;20205;-77
2023/03/30 05:26:15;;;;;;;4.97;2.00;;;14.20;99.90;;;;;;5050572;28;20181;-78
2023/03/30 05:28:41;;;;;;;7.90;2.47;;;14.20;99.90;;;;;;5036752;28;20181;-78
2023/03/30 05:31:07;;;;;;;6.80;2.10;;;14.20;99.90;;;;;;5054599;28;20236;-78
2023/03/30 05:33:33;;;;;;;5.30;2.40;;;14.20;99.90;;;;;;5050669;28;20420;-78
2023/03/30 05:35:59;;;;;;;2.47;2.03;;;14.20;99.90;;;;;;5051396;28;20421;-78
2023/03/30 05:38:25;;;;;;;3.83;1.90;;;14.20;99.90;;;;;;5052501;28;20249;-78
2023/03/30 05:40:53;;;;;;;3.47;2.10;;;14.20;99.90;;;;;;5049669;28;20667;-78
2023/03/30 05:43:19;;;;;;;5.67;2.90;;;14.20;99.90;;;;;;5053069;28;20678;-78
2023/03/30 05:45:45;;;;;;;5.20;2.17;;;14.20;99.90;;;;;;5054266;28;20509;-78
2023/03/30 05:48:11;;;;;;;7.43;2.30;;;14.20;99.90;;;;;;5053116;28;20428;-78
2023/03/30 05:50:37;;;;;;;4.70;2.07;;;14.30;99.90;;;;;;5052863;28;20236;-78
2023/03/30 05:53:02;;;;;;;4.50;2.50;;;14.20;99.90;;;;;;5050721;28;20205;-78
2023/03/30 05:55:28;;;;;;;7.30;1.90;;;14.20;99.90;;;;;;5049361;28;20214;-78
2023/03/30 05:57:55;;;;;;;3.03;1.80;;;14.20;99.90;;;;;;5053711;28;20921;-78
2023/03/30 06:00:21;;;;;;;5.00;1.93;;;14.20;99.90;;;;;;5054245;28;20178;-78
2023/03/30 06:02:48;;;;;;;5.07;2.40;;;14.20;99.90;;;;;;5053312;28;20427;-78
2023/03/30 06:05:14;;;;;;;6.83;2.40;;;14.20;99.90;;;;;;5053618;28;20479;-78
2023/03/30 06:07:39;;;;;;;3.60;2.03;;;14.20;99.90;;;;;;5036489;28;20851;-78
2023/03/30 06:10:06;;;;;;;4.40;2.30;;;14.20;99.90;;;;;;5050522;28;20263;-77
2023/03/30 06:12:32;;;;;;;6.33;2.10;;;14.20;99.90;;;;;;5050521;28;20356;-77
2023/03/30 06:15:01;;;;;;;3.40;2.40;;;14.20;99.90;;;;;;5052792;28;20798;-77
2023/03/30 06:17:28;;;;;;;3.33;1.63;;;14.20;99.90;;;;;;5052997;28;20503;-77
2023/03/30 06:19:54;;;;;;;5.10;2.07;;;14.10;99.90;;;;;;5051804;28;20416;-78
2023/03/30 06:22:20;;;;;;;3.47;2.00;;;14.20;99.90;;;;;;5052944;28;20440;-77
2023/03/30 06:24:46;;;;;;;3.90;2.10;;;14.10;99.90;;;;;;5050895;28;20272;-77
2023/03/30 06:27:12;;;;;;;2.67;2.20;;;14.10;99.90;;;;;;5053038;28;20466;-77
2023/03/30 06:29:37;;;;;;;3.97;2.20;;;14.10;99.90;;;;;;5052808;28;20419;-77
2023/03/30 06:32:03;;;;;;;3.17;2.20;;;14.10;99.90;;;;;;5051896;28;20439;-78
2023/03/30 06:34:29;;;;;;;3.60;1.90;;;14.10;99.90;;;;;;5051097;28;20201;-77
2023/03/30 06:36:55;;;;;;;1.97;1.60;;;14.10;99.90;;;;;;5053415;28;20499;-77
2023/03/30 06:39:21;;;;;;;3.40;2.27;;;14.10;99.90;;;;;;5053355;28;20448;-77
2023/03/30 06:41:47;;;;;;;4.50;1.70;;;14.10;99.90;;;;;;5055161;28;20210;-77
2023/03/30 06:44:16;;;;;;;5.93;2.40;;;14.10;99.90;;;;;;5052313;28;20217;-78
2023/03/30 06:46:41;;;;;;;4.60;1.70;;;14.10;99.90;;;;;;5044063;28;21047;-78
2023/03/30 06:49:07;;;;;;;2.97;1.80;;;14.00;99.90;;;;;;5043237;28;20416;-77
2023/03/30 06:51:36;;;;;;;3.20;1.73;;;14.10;99.90;;;;;;5051821;28;20716;-78
2023/03/30 06:54:02;;;;;;;4.53;3.30;;;14.10;99.90;;;;;;5049717;28;20198;-78
2023/03/30 06:56:28;;;;;;;3.63;2.00;;;14.20;99.90;;;;;;5042560;28;20417;-77
2023/03/30 06:58:56;;;;;;;5.30;1.70;;;14.30;99.90;;;;;;5049024;28;20412;-77
2023/03/30 07:01:22;;;;;;;5.97;2.20;;;14.50;99.90;;;;;;5050957;28;20441;-77
2023/03/30 07:03:50;;;;;;;2.70;1.87;;;14.60;99.90;;;;;;5052178;28;20436;-77
2023/03/30 07:06:16;;;;;;;3.30;1.87;;;14.80;99.90;;;;;;5052587;28;20458;-77
2023/03/30 07:08:43;;;;;;;3.43;2.00;;;14.90;99.90;;;;;;5049946;28;20428;-77
2023/03/30 07:11:09;;;;;;;3.30;1.83;;;15.00;99.90;;;;;;5052268;28;20456;-77
2023/03/30 07:13:35;;;;;;;4.80;2.17;;;14.90;99.90;;;;;;5051604;28;20451;-77
2023/03/30 07:16:01;;;;;;;4.53;2.10;;;14.90;99.90;;;;;;5051408;28;20177;-77
2023/03/30 07:18:26;;;;;;;4.20;2.43;;;14.80;99.90;;;;;;5084829;28;20405;-78
2023/03/30 07:20:52;;;;;;;6.10;2.30;;;14.80;99.90;;;;;;5052802;28;20204;-78
2023/03/30 07:23:18;;;;;;;5.20;2.17;;;14.70;99.90;;;;;;5053601;28;20261;-77
2023/03/30 07:25:45;;;;;;;4.70;1.80;;;14.70;99.90;;;;;;5045494;28;20217;-78
2023/03/30 07:28:11;;;;;;;4.70;2.20;;;14.70;99.90;;;;;;5032520;28;20197;-76
2023/03/30 07:30:37;;;;;;;5.50;3.17;;;14.70;99.90;;;;;;5032412;28;20461;-77
2023/03/30 07:33:03;;;;;;;4.63;2.03;;;14.60;99.90;;;;;;5032312;28;20499;-78
2023/03/30 07:35:29;;;;;;;3.30;2.00;;;14.60;99.90;;;;;;5029245;28;20891;-78
2023/03/30 07:37:55;;;;;;;3.10;2.07;;;14.60;99.90;;;;;;5031159;28;20177;-77
2023/03/30 07:40:20;;;;;;;2.83;1.77;;;14.60;99.90;;;;;;5053351;28;20506;-77
2023/03/30 07:42:47;;;;;;;3.60;2.00;;;14.60;99.90;;;;;;5050163;28;20227;-77
2023/03/30 07:45:13;;;;;;;6.37;2.20;;;14.50;99.90;;;;;;5051367;28;20208;-77
2023/03/30 07:47:39;;;;;;;2.33;1.67;;;14.50;99.90;;;;;;5051570;28;20917;-77
2023/03/30 07:50:06;;;;;;;2.80;1.50;;;14.50;99.90;;;;;;5050898;28;20458;-78
2023/03/30 07:52:32;;;;;;;3.50;1.83;;;14.40;99.90;;;;;;5051717;28;20235;-77
2023/03/30 07:54:57;;;;;;;3.23;1.50;;;14.40;99.90;;;;;;5051199;28;20523;-78
2023/03/30 07:57:23;;;;;;;4.47;2.40;;;14.40;99.90;;;;;;5051536;28;20492;-77
2023/03/30 07:59:49;;;;;;;3.27;1.70;;;14.40;99.90;;;;;;5051236;28;20209;-77
2023/03/30 08:02:15;;;;;;;4.10;2.10;;;14.40;99.90;;;;;;5051447;28;20455;-77
2023/03/30 08:04:42;;;;;;;5.00;2.13;;;14.40;99.90;;;;;;5051017;28;20201;-77
2023/03/30 08:07:08;;;;;;;4.67;1.70;;;14.40;99.90;;;;;;5051030;28;20507;-78
2023/03/30 08:09:34;;;;;;;3.40;1.90;;;14.40;99.90;;;;;;5050665;28;20412;-77
2023/03/30 08:12:00;;;;;;;3.00;2.10;;;14.50;99.90;;;;;;5051299;28;20443;-77
2023/03/30 08:14:26;;;;;;;6.23;2.43;;;14.50;99.90;;;;;;5049630;28;20432;-77
2023/03/30 08:16:53;;;;;;;4.27;2.17;;;14.50;99.90;;;;;;5050764;28;20551;-78
2023/03/30 08:19:20;;;;;;;1.93;1.60;;;14.50;99.90;;;;;;5051071;28;20415;-78
2023/03/30 08:21:46;;;;;;;2.83;1.50;;;14.50;99.90;;;;;;5051245;28;20412;-77
2023/03/30 08:24:12;;;;;;;5.60;1.60;;;14.50;99.90;;;;;;5050357;28;20464;-77
2023/03/30 08:26:37;;;;;;;5.53;1.70;;;14.50;99.90;;;;;;5049777;28;20412;-77
2023/03/30 08:29:03;;;;;;;7.90;1.83;;;14.50;99.90;;;;;;5051006;28;20416;-77
2023/03/30 08:31:33;;;;;;;4.03;1.23;;;14.60;99.90;;;;;;5049468;28;20216;-77
2023/03/30 08:33:59;;;;;;;4.20;1.30;;;14.50;99.90;;;;;;5049110;28;20467;-77
2023/03/30 08:36:25;;;;;;;5.10;1.63;;;14.50;99.90;;;;;;5031079;28;20448;-77
2023/03/30 08:38:53;;;;;;;6.93;1.70;;;14.40;99.90;;;;;;5051041;28;20439;-77
2023/03/30 08:41:47;;;;;;;4.43;1.80;;;14.40;99.90;;;;;;5058102;28;20474;-77
2023/03/30 08:44:19;;;;;;;2.53;1.43;;;14.30;99.90;;;;;;5050051;28;20444;-78
2023/03/30 08:46:47;;;;;;;4.90;1.70;;;14.30;99.90;;;;;;5050618;28;20420;-77
2023/03/30 08:49:16;;;;;;;4.70;1.50;;;14.30;99.90;;;;;;5054218;28;20984;-77
2023/03/30 08:51:43;;;;;;;4.60;1.47;;;14.40;99.90;;;;;;5054328;28;20471;-77
2023/03/30 08:54:14;;;;;;;4.93;1.50;;;14.40;99.90;;;;;;5054527;28;20424;-78
2023/03/30 08:57:18;;;;;;;3.87;1.77;;;14.40;99.90;;;;;;5055041;28;20485;-77
2023/03/30 09:00:18;;;;;;;4.50;1.87;;;14.50;99.90;;;;;;5042661;28;20409;-77
2023/03/30 09:02:48;;;;;;;4.03;2.10;;;14.60;99.90;;;;;;5053185;28;20408;-77
2023/03/30 09:05:39;;;;;;;4.43;1.67;;;14.60;99.90;;;;;;5053676;28;20432;-77
2023/03/30 09:08:18;;;;;;;2.77;1.80;;;14.70;99.90;;;;;;5054067;28;20419;-77
2023/03/30 09:10:57;;;;;;;3.97;1.73;;;14.70;99.90;;;;;;5052511;28;21222;-77
2023/03/30 09:13:26;;;;;;;4.43;2.00;;;14.70;99.90;;;;;;5053908;28;20465;-76
2023/03/30 09:16:13;;;;;;;3.37;1.80;;;14.80;99.90;;;;;;5054354;28;20783;-77
2023/03/30 09:18:41;;;;;;;6.80;1.80;;;14.90;99.90;;;;;;5053649;28;20408;-77
2023/03/30 09:21:11;;;;;;;3.63;1.87;;;14.90;99.90;;;;;;5053803;28;20416;-77
2023/03/30 09:23:38;;;;;;;3.20;1.57;;;14.90;99.90;;;;;;5052272;28;20412;-77
2023/03/30 09:26:18;;;;;;;4.83;1.70;;;15.00;99.90;;;;;;5052914;28;20457;-77
2023/03/30 09:29:14;;;;;;;3.23;1.43;;;15.10;99.90;;;;;;5052830;28;20465;-77
2023/03/30 09:31:43;;;;;;;3.87;1.60;;;15.00;99.90;;;;;;5053669;28;20547;-77
2023/03/30 09:34:33;;;;;;;3.50;1.50;;;15.00;99.90;;;;;;5053085;28;20435;-77
2023/03/30 09:37:20;;;;;;;4.87;1.70;;;15.00;99.90;;;;;;5051648;28;20408;-77
2023/03/30 09:39:47;;;;;;;6.47;2.27;;;14.90;99.90;;;;;;5061834;28;21111;-77
2023/03/30 09:42:23;;;;;;;4.80;1.77;;;14.90;99.90;;;;;;5052307;28;20408;-77
2023/03/30 09:44:51;;;;;;;5.93;1.80;;;14.90;99.90;;;;;;5052097;28;20420;-77
2023/03/30 09:47:27;;;;;;;5.07;2.37;;;15.00;99.90;;;;;;5054065;28;20439;-77
2023/03/30 09:50:02;;;;;;;3.47;1.27;;;15.10;99.90;;;;;;5053529;28;20809;-77
2023/03/30 09:52:31;;;;;;;4.57;1.50;;;15.10;99.90;;;;;;5053854;28;20500;-77
2023/03/30 09:55:19;;;;;;;4.50;1.73;;;15.10;99.90;;;;;;5052692;28;20428;-77
2023/03/30 09:57:45;;;;;;;4.10;2.03;;;15.10;99.90;;;;;;5052852;28;20412;-77
2023/03/30 10:00:32;;;;;;;3.80;1.90;;;15.00;99.90;;;;;;5052817;28;20412;-77
2023/03/30 10:03:01;;;;;;;4.40;2.03;;;14.90;99.90;;;;;;5053516;28;20246;-77
2023/03/30 10:05:28;;;;;;;5.03;1.50;;;14.90;99.90;;;;;;5051920;28;20428;-77
2023/03/30 10:07:57;;;;;;;7.13;2.00;;;14.80;99.90;;;;;;5052839;28;20478;-78
2023/03/30 10:10:25;;;;;;;2.80;1.37;;;14.70;99.90;;;;;;5053094;28;20456;-77
2023/03/30 10:12:56;;;;;;;5.93;1.67;;;14.60;99.90;;;;;;5053244;28;20428;-77
2023/03/30 10:15:29;;;;;;;3.63;1.40;;;14.60;99.90;;;;;;5052494;28;20505;-77
2023/03/30 10:17:59;;;;;;;6.03;1.17;;;14.50;99.90;;;;;;5051307;28;20421;-77
2023/03/30 10:20:35;;;;;;;3.30;1.57;;;14.40;99.90;;;;;;5051113;28;20451;-77
2023/03/30 10:23:13;;;;;;;7.17;1.70;;;14.30;99.90;;;;;;5034478;28;20792;-77
2023/03/30 10:25:41;;;;;;;3.77;1.60;;;14.20;99.90;;;;;;5052763;28;20464;-77
2023/03/30 10:28:20;;;;;;;7.40;1.80;;;14.20;99.90;;;;;;5053225;28;20489;-77
2023/03/30 10:31:07;;;;;;;6.20;1.80;;;14.10;99.90;;;;;;5052945;28;20873;-77
2023/03/30 10:33:39;;;;;;;4.50;1.40;;;14.00;99.90;;;;;;5052279;28;20427;-77
2023/03/30 10:36:06;;;;;;;6.87;1.20;;;14.00;99.90;;;;;;5049579;28;20412;-77
2023/03/30 10:38:33;;;;;;;5.23;1.77;;;13.90;99.90;;;;;;5052519;28;20928;-77
2023/03/30 10:41:08;;;;;;;11.80;1.80;;;13.90;99.90;;;;;;5060998;28;21069;-77
2023/03/30 10:43:37;;;;;;;8.37;2.53;;;13.90;99.90;;;;;;5049824;28;20419;-77
2023/03/30 10:46:15;;;;;;;7.93;1.87;;;13.90;99.90;;;;;;5051180;28;20425;-77
2023/03/30 10:48:53;;;;;;;3.80;2.00;;;13.90;99.90;;;;;;5050120;28;20781;-77
2023/03/30 10:51:46;;;;;;;5.20;1.70;;;13.80;99.90;;;;;;5050755;28;20887;-77
2023/03/30 10:55:25;;;;;;;3.67;1.77;;;13.80;99.90;;;;;;5051755;28;20428;-77
2023/03/30 10:58:20;;;;;;;5.23;2.40;;;13.80;99.90;;;;;;4935076;29;20412;-77
2023/03/30 11:00:48;;;;;;;7.80;2.10;;;13.90;99.90;;;;;;5027900;28;20567;-77
2023/03/30 11:03:21;;;;;;;7.13;2.17;;;13.90;99.90;;;;;;5030841;28;20435;-77
2023/03/30 11:05:53;;;;;;;8.30;2.43;;;13.90;99.90;;;;;;5051762;28;20428;-77
2023/03/30 11:08:28;;;;;;;9.07;2.60;;;14.10;99.90;;;;;;5051975;28;20905;-77
2023/03/30 11:10:57;;;;;;;4.20;2.07;;;14.30;99.90;;;;;;5050756;28;20982;-77
2023/03/30 11:13:37;;;;;;;6.60;2.07;;;14.60;99.90;;;;;;5051384;28;20452;-78
2023/03/30 11:16:15;;;;;;;8.67;2.53;;;14.80;99.90;;;;;;5050419;28;20412;-77
2023/03/30 11:19:01;;;;;;;5.33;2.23;;;14.90;99.90;;;;;;5051055;28;20400;-77
2023/03/30 11:21:57;;;;;;;7.97;2.00;;;15.10;99.90;;;;;;5049345;28;20419;-78
2023/03/30 11:24:25;;;;;;;7.57;2.40;;;15.20;99.90;;;;;;5050453;28;20534;-79
2023/03/30 11:26:57;;;;;;;7.93;2.60;;;15.30;99.90;;;;;;5049850;28;20461;-79
2023/03/30 11:29:48;;;;;;;4.50;2.30;;;15.30;99.90;;;;;;5048814;28;20462;-78
2023/03/30 11:32:51;;;;;;;5.60;2.73;;;15.30;99.90;;;;;;5050283;28;20428;-78
2023/03/30 11:35:45;;;;;;;6.73;2.10;;;15.30;99.90;;;;;;5049809;28;20431;-78
2023/03/30 11:38:17;;;;;;;5.00;2.23;;;15.30;99.90;;;;;;5050001;28;20404;-78
2023/03/30 11:40:47;;;;;;;8.70;2.67;;;15.30;99.90;;;;;;5058840;28;20424;-78
2023/03/30 11:43:15;;;;;;;6.03;2.13;;;15.30;99.90;;;;;;5046759;28;20417;-78
2023/03/30 11:45:59;;;;;;;5.47;2.60;;;15.40;99.90;;;;;;5050989;28;20505;-78
2023/03/30 11:49:03;;;;;;;6.47;2.83;;;15.40;99.90;;;;;;5050479;28;20775;-78
2023/03/30 11:51:37;;;;;;;8.67;2.67;;;15.50;99.90;;;;;;5048659;28;20508;-78
2023/03/30 11:54:15;;;;;;;10.80;3.03;;;15.50;99.90;;;;;;5049424;28;20796;-78
2023/03/30 11:56:52;;;;;;;5.73;2.57;;;15.50;99.90;;;;;;5049695;28;20420;-78
2023/03/30 11:59:26;;;;;;;5.20;3.10;;;15.50;99.90;;;;;;5048585;28;20411;-78
2023/03/30 12:02:19;;;;;;;5.13;2.47;;;15.40;99.90;;;;;;5049805;28;20416;-78
2023/03/30 12:05:10;;;;;;;6.60;2.00;;;15.50;99.90;;;;;;5049480;28;20466;-78
2023/03/30 12:07:54;;;;;;;4.00;1.70;;;15.50;99.90;;;;;;5049618;28;20427;-78
2023/03/30 12:10:27;;;;;;;3.00;1.70;;;15.50;99.90;;;;;;5049953;28;20460;-77
2023/03/30 12:12:54;;;;;;;6.53;2.20;;;15.40;99.90;;;;;;5048515;28;20847;-78
2023/03/30 12:15:29;;;;;;;6.27;2.53;;;15.40;99.90;;;;;;5049607;28;20505;-78
2023/03/30 12:18:04;;;;;;;8.10;4.03;;;15.30;99.90;;;;;;5048016;28;20423;-79
2023/03/30 12:20:48;;;;;;;4.03;1.77;;;15.30;99.90;;;;;;5050103;28;20447;-78
2023/03/30 12:23:46;;;;;;;9.83;2.10;;;15.30;99.90;;;;;;5053455;28;20419;-78
2023/03/30 12:26:27;;;;;;;4.30;2.60;;;15.30;99.90;;;;;;5031994;28;21073;-78
2023/03/30 12:28:53;;;;;;;2.40;1.63;;;15.20;99.90;;;;;;5054123;28;20403;-78
2023/03/30 12:31:20;;;;;;;7.43;2.73;;;15.20;99.90;;;;;;5054712;28;20463;-76
2023/03/30 12:33:49;;;;;;;5.30;1.93;;;15.20;99.90;;;;;;5054088;28;20198;-78
2023/03/30 12:36:36;;;;;;;3.07;1.83;;;15.10;99.90;;;;;;5054544;28;20515;-79
2023/03/30 12:39:07;;;;;;;1.90;1.70;;;15.10;99.90;;;;;;5054295;28;20408;-78
2023/03/30 12:41:48;;;;;;;4.63;1.73;;;15.00;99.90;;;;;;5052338;28;20438;-78
2023/03/30 12:44:38;;;;;;;3.97;1.90;;;15.00;99.90;;;;;;5053356;28;21148;-78
2023/03/30 12:47:18;;;;;;;6.37;2.17;;;14.90;99.90;;;;;;5053435;28;20420;-77
2023/03/30 12:50:11;;;;;;;4.37;1.60;;;14.90;99.90;;;;;;5051760;28;20408;-78
2023/03/30 12:53:03;;;;;;;2.90;1.70;;;14.80;99.90;;;;;;5051850;28;21204;-78
2023/03/30 12:55:37;;;;;;;5.77;1.70;;;14.70;99.90;;;;;;5049676;28;20945;-78
2023/03/30 12:58:25;;;;;;;4.53;1.00;;;14.60;99.90;;;;;;5051543;28;20522;-78
2023/03/30 13:01:12;;;;;;;3.80;1.50;;;14.50;99.90;;;;;;5052905;28;20446;-78
2023/03/30 13:04:06;;;;;;;2.83;2.07;;;14.40;99.90;;;;;;5051250;28;20785;-78
2023/03/30 13:06:40;;;;;;;3.13;1.40;;;14.30;99.90;;;;;;5053098;28;20420;-78
2023/03/30 13:09:14;;;;;;;2.93;0.83;;;14.20;99.90;;;;;;5051334;28;20419;-78
2023/03/30 13:12:26;;;;;;;2.20;1.23;;;14.10;99.90;;;;;;5052581;28;20462;-78
2023/03/30 13:15:15;;;;;;;3.57;1.90;;;14.20;99.90;;;;;;5048013;28;20509;-78